ADDS METAR Data INFO
IDs: Format: Raw Decoded Include TAF

Data at: 2254 UTC 11 Dec 2017

PAGN 112239Z AUTO 00000KT 4SM RA BR SCT011 SCT028 OVC040 06/06 A3002 RMK AO2 P0008
PAGN 112233Z AUTO 00000KT 4SM RA BR FEW004 BKN011 OVC040 06/06 A3002 RMK AO2 P0007
PAGN 112217Z AUTO VRB04KT 4SM -RA BR OVC013 06/06 A3003 RMK AO2 P0004
PAGN 112156Z AUTO 00000KT 4SM RA BR FEW009 BKN017 OVC030 06/06 A3002 RMK AO2 SLP156 P0009 T00610061
PAGN 112107Z AUTO 00000KT 4SM RA BR SCT007 SCT017 OVC025 06/06 A3003 RMK AO2 P0002
PAGN 112056Z AUTO 00000KT 4SM RA BR FEW012 BKN025 OVC035 06/06 A3003 RMK AO2 SLP158 P0013 60044 T00610061 58002
PAGN 111956Z AUTO 00000KT 5SM RA BR FEW003 SCT026 OVC037 06/06 A3004 RMK AO2 SLP161 P0016 T00610061
PAGN 111932Z AUTO 17004KT 3SM RA BR FEW003 BKN028 OVC037 06/06 A3004 RMK AO2 P0010
PAGN 111928Z AUTO 35003KT 4SM RA BR FEW017 SCT028 OVC037 06/06 A3003 RMK AO2 P0009
PAGN 111903Z AUTO 00000KT 2 1/2SM RA BR FEW017 OVC035 06/06 A3003 RMK AO2 VIS 2V4 P0002
PAGN 111856Z AUTO 00000KT 3SM RA BR FEW003 OVC035 06/06 A3003 RMK AO2 SLP157 P0015 T00610056
PAGN 111848Z AUTO 00000KT 4SM RA BR FEW003 OVC035 06/06 A3002 RMK AO2 P0014
PAGN 111838Z AUTO 00000KT 3SM RA BR FEW003 BKN025 OVC033 06/06 A3002 RMK AO2 P0012
PAGN 111805Z AUTO 00000KT 3SM RA BR FEW008 BKN012 OVC036 06/06 A3001 RMK AO2 P0002
PAGN 111756Z AUTO 00000KT 4SM RA BR FEW008 SCT014 OVC034 06/06 A3001 RMK AO2 SLP151 P0017 60093 T00610061 10094 20061 51014
PAGN 111656Z AUTO 00000KT 6SM RA BR OVC034 06/06 A2999 RMK AO2 SLP144 P0020 T00610061
PAGN 111626Z AUTO 00000KT 5SM RA BR FEW016 BKN030 OVC036 06/06 A2998 RMK AO2 P0011
PAGN 111604Z AUTO 00000KT 4SM RA BR SCT014 BKN018 OVC034 06/06 A2996 RMK AO2 P0004
PAGN 111556Z AUTO 00000KT 4SM +RA BR BKN014 BKN021 OVC038 07/06 A2997 RMK AO2 SLP137 P0017 T00670061
PAGN 111551Z AUTO 00000KT 4SM RA BR BKN014 BKN021 OVC038 07/06 A2997 RMK AO2 P0015
PAGN 111529Z AUTO 00000KT 5SM RA BR FEW014 BKN021 OVC038 07/06 A2995 RMK AO2 P0008
PAGN 111456Z AUTO VRB03KT 6SM RA BR FEW006 BKN011 OVC024 07/06 A2994 RMK AO2 SLP129 P0018 60039 T00720061 50011
PAGN 111454Z AUTO VRB04KT 6SM RA BR FEW006 BKN011 OVC026 07/06 A2995 RMK AO2 P0017
PAGN 111446Z AUTO 00000KT 6SM RA BR BKN006 BKN017 OVC030 08/07 A2994 RMK AO2 CIG 004V011 P0014
PAGN 111356Z AUTO 00000KT 6SM RA BR OVC030 08/08 A2992 RMK AO2 SLP120 P0012 T00780078
PAGN 111256Z AUTO 17006KT 8SM RA OVC041 09/07 A2991 RMK AO2 SLP118 P0009 T00890072
PAGN 111156Z AUTO 00000KT 6SM RA BR BKN033 OVC043 08/07 A2991 RMK AO2 SLP116 P0007 60014 70024 T00830072 10094 20083 55002
PAGN 111056Z AUTO 11005KT 8SM RA BKN032 BKN039 OVC047 08/07 A2991 RMK AO2 SLP116 P0002 T00830072
PAGN 110956Z AUTO 12008KT 10SM -RA BKN033 OVC049 09/08 A2991 RMK AO2 SLP118 P0002 T00890078
PAGN 110856Z AUTO 12008KT 10SM -RA BKN031 BKN039 OVC060 09/08 A2991 RMK AO2 SLP119 P0001 60003 T00940078 400940039 53009
PAGN 110756Z AUTO 11005KT 10SM -RA OVC031 09/08 A2990 RMK AO2 SLP114 P0001 T00890078
PAGN 110656Z AUTO 14005KT 10SM -RA BKN033 OVC045 09/08 A2990 RMK AO2 SLP114 P0001 T00940078
PAGN 110456Z AUTO 08009KT 060V120 10SM -RA OVC036 09/07 A2988 RMK AO2 SLP108 P0001 T00890072
PAGN 110356Z AUTO 09008KT 10SM -RA OVC038 08/06 A2989 RMK AO2 SLP111 P0004 T00780061
PAGN 110256Z AUTO 09009G15KT 10SM -RA BKN042 OVC049 07/05 A2992 RMK AO2 SLP120 P0001 60002 T00670050 56041
PAGN 110156Z AUTO 08009G14KT 050V110 10SM -RA SCT048 OVC070 07/04 A2994 RMK AO2 SLP126 P0000 T00670044
PAGN 110056Z AUTO 08010KT 10SM -RA BKN046 OVC085 06/04 A2998 RMK AO2 PRESFR SLP140 P0001 T00610044
PAGN 102356Z AUTO 07010G14KT 10SM -RA OVC050 07/05 A3004 RMK AO2 RAB02 SLP161 P0001 60001 T00670050 10089 20067 58052
PAGN 102256Z AUTO 12011KT 10SM FEW048 OVC095 07/05 A3009 RMK AO2 RAB07E55 SLP177 P0000 T00720050
PAGN 102156Z AUTO 12004KT 10SM BKN038 OVC110 07/04 A3017 RMK AO2 SLP205 T00720044
PAGN 102056Z AUTO 15003KT 10SM BKN040 08/04 A3019 RMK AO2 SLP213 T00830039 56012
PAGN 101956Z AUTO 00000KT 10SM BKN036 08/04 A3020 RMK AO2 SLP216 T00780044
PAGN 101856Z AUTO VRB03KT 10SM CLR 08/04 A3022 RMK AO2 SLP222 T00780044
PAGN 101756Z AUTO VRB04KT 10SM FEW036 SCT120 07/04 A3023 RMK AO2 SLP225 T00720044 10072 20039 58006
PAGN 101656Z AUTO 00000KT 10SM OVC034 06/05 A3024 RMK AO2 SLP229 T00610050
PAGN 101556Z AUTO 00000KT 10SM OVC032 06/05 A3024 RMK AO2 SLP229 T00560050
PAGN 101456Z AUTO 00000KT 10SM BKN036 OVC050 06/05 A3024 RMK AO2 SLP231 T00560050 50009
PAGN 101356Z AUTO 00000KT 10SM SCT041 OVC050 05/04 A3025 RMK AO2 SLP232 T00500044
PAGN 101256Z AUTO 00000KT 10SM OVC041 04/04 A3023 RMK AO2 SLP225 T00440044
PAGN 101156Z AUTO 00000KT 10SM BKN040 OVC055 04/04 A3022 RMK AO2 SLP222 60002 70007 T00440039 10078 20039 51031
PAGN 101056Z AUTO 00000KT 10SM BKN060 05/05 A3020 RMK AO2 SLP214 T00500050